Aeroporto :
LOGIN :

Iscrizione | Disclaimer

   EN    FR    IT 

 










Sommario :    VFR   VFR Marginale   IFR   IFR Intensivo   IFR Molto Intensivo
Visibilità : 
Base nubi : 
>= 8 km
>= 3000ft
5 / 8 km
1000 / 3000 ft
1500m / 5 km
500 / 1000 ft
800 / 1500m
200 / 500 ft
< 800m
< 200 ft
Simboli :   Temporali  Nebbia  Neve Forte  Precipitazioni Forti  Vento > 20 kt
SIGMETs :   Varie  Temporali  Ghiacco  Turbolenza  Onda orograficha  Ceneri Vulcaniche






- Altitudine del aeroporto : 375 ft
- Codice IATA : MST


EHBK - Maastricht Aachen

ULTIMO METAR :
  • 240855Z AUTO 23008KT 200V270 9999 SCT010 BKN012 OVC016 16/14 Q1018 BECMG BKN018

METARs OBSOLETI :
  • 240825Z AUTO 23010KT 200V260 9000 BKN008 BKN010 OVC014 16/14 Q1018 BECMG BKN012
  • 240755Z AUTO 22009KT 200V260 6000 FEW005 BKN007 BKN008 15/14 Q1017 BECMG BKN012
  • 240725Z AUTO 21008KT 170V230 5000 BKN003 OVC004 15/14 Q1017 BECMG 7000 NSW BKN006
  • 240655Z AUTO 23008KT 5000 FEW002 BKN004 BKN007 15/14 Q1017 BECMG 7000 NSW
  • 240625Z AUTO 23009KT 4500 BR OVC003 14/14 Q1017 BECMG 7000 NSW

TAF TAF EHBK
Valido dal 24 a 06 ore il 25 a 12 ore UTC


240501Z 2406/2512 24007KT 4000 BKN002
BECMG 2408/2411 9999 SCT020
PROB30 2500/2507 5000 BR



MetMap, La meteo Aeronautica in un colpo d'occhio ! - Copyright ORBIFLY Dicembre 2007 - Disclaimer

ORBIFLY MET'MAP TEAM :

Programmazione e sviluppo : Alexandra Zaïnal
Concezione : Baudouin d'Aumeries
Aiuto per la programmazione : Marc-Olivier Méhu
Supporto tecnico e logistico : Manuel Goepfert
Aiuto per la traduzione : Arnaldo La Scala

Contatto : metmap@orbifly.com




FONTI E CREDITI :

   NOAA